FAEG weather

Public forecast

Using degrees Celsius for public forecast. Weather courtesy of forecast.io.

Closest aviation weather report (METAR) to Egnep Airport

Closest report is Hoedspruit Air Force Base Airport, 41.7 nm (77.3 km) ENE. Retrieved 2020/08/14 17:00 UTC (10 minutes ago):

FAHS 141700Z AUTO 04005KT //// // ////// 19/09 Q1020

Closest aviation forecast (TAF) to Egnep Airport

Forecast is more than 12 hours old.

Closest forecast is Hoedspruit Air Force Base Airport, 41.7 nm (77.3 km) ENE. Retrieved 2017/05/23 04:01 UTC (3 years ago):

TAF FAHS 230300Z 2304/2315 VRB02KT CAVOK TX29/2312ZTN12/2304Z